Time;durP1;ratioP1;P1;durP2;ratioP2;P2;SDS_P1;SDS_P2;PMS_P1;PMS_P2;Temp;Humidity;BMP_temperature;BMP_pressure;BME280_temperature;BME280_humidity;BME280_pressure;Samples;Min_cycle;Max_cycle;Signal;HPM_P1;HPM_P2
2022/02/09 00:03:38;;;;;;;;;57.00;46.50;;;;;7.22;67.87;102232.50;5077113;28;45339;-60
2022/02/09 00:06:07;;;;;;;;;61.00;47.00;;;;;7.18;67.19;102227.47;5076764;28;45295;-59
2022/02/09 00:08:33;;;;;;;;;64.50;52.50;;;;;7.10;67.28;102225.22;5077359;28;45538;-61
2022/02/09 00:11:02;;;;;;;;;64.00;50.50;;;;;7.08;66.82;102230.53;5076683;28;52925;-61
2022/02/09 00:16:05;;;;;;;;;66.50;51.00;;;;;7.00;66.98;102226.56;5077195;28;45357;-60
2022/02/09 00:19:00;;;;;;;;;63.75;47.75;;;;;6.98;67.28;102211.78;5077234;28;45163;-60
2022/02/09 00:22:02;;;;;;;;;62.75;46.50;;;;;6.98;67.69;102217.00;5058600;28;46930;-60
2022/02/09 00:24:38;;;;;;;;;64.00;50.25;;;;;6.99;67.56;102212.66;5074432;28;45277;-60
2022/02/09 00:32:30;;;;;;;;;63.25;51.50;;;;;6.92;67.06;102208.63;5076646;28;46158;-61
2022/02/09 01:41:18;;;;;;;;;46.00;37.75;;;;;6.63;68.77;102180.31;5079437;28;45538;-61
2022/02/09 01:55:26;;;;;;;;;53.75;43.00;;;;;6.51;67.05;102173.00;5079346;28;45342;-61
2022/02/09 01:56:51;;;;;;;;;54.25;42.50;;;;;6.43;66.67;102173.38;5079578;28;45441;-61
2022/02/09 01:59:17;;;;;;;;;52.00;39.75;;;;;6.42;66.76;102173.41;5078231;28;74618;-61
2022/02/09 02:01:42;;;;;;;;;45.25;37.50;;;;;6.42;66.76;102178.66;5078206;28;69827;-62
2022/02/09 02:04:08;;;;;;;;;40.50;34.50;;;;;6.40;66.94;102178.72;5078283;28;62256;-62
2022/02/09 02:06:34;;;;;;;;;36.25;32.75;;;;;6.38;67.23;102172.72;5078219;28;62307;-61
2022/02/09 02:09:00;;;;;;;;;53.75;41.25;;;;;6.36;67.01;102175.38;5060580;28;48149;-61
2022/02/09 02:14:03;;;;;;;;;52.50;39.75;;;;;6.29;66.44;102170.50;5078935;28;45441;-61
2022/02/09 02:16:34;;;;;;;;;48.25;40.25;;;;;6.24;66.48;102175.94;5059837;28;45613;-60
2022/02/09 02:19:49;;;;;;;;;54.00;40.25;;;;;6.19;66.52;102172.69;5060451;28;46828;-61
2022/02/09 02:22:07;;;;;;;;;52.25;40.25;;;;;6.15;66.41;102164.13;5064250;28;45255;-61
2022/02/09 03:13:21;;;;;;;;;39.50;32.00;;;;;5.95;69.16;102099.72;5077932;28;46169;-59
2022/02/09 03:15:31;;;;;;;;;40.25;31.25;;;;;5.94;69.14;102104.13;5073656;28;45864;-60
2022/02/09 03:23:28;;;;;;;;;33.25;27.75;;;;;5.88;68.95;102091.34;5077789;28;45342;-61
2022/02/09 03:50:27;;;;;;;;;37.25;33.25;;;;;5.68;69.28;102049.63;5097965;27;45423;-60
2022/02/09 03:58:06;;;;;;;;;47.50;35.50;;;;;5.61;69.36;102033.41;5097707;27;45278;-61
2022/02/09 04:00:35;;;;;;;;;37.00;28.50;;;;;5.63;69.34;102039.41;5097539;27;45444;-61
2022/02/09 04:03:02;;;;;;;;;37.75;30.25;;;;;5.66;69.30;102036.66;5079320;27;45462;-61
2022/02/09 04:05:28;;;;;;;;;37.25;32.75;;;;;5.68;69.12;102037.44;5079421;27;47364;-61
2022/02/09 04:07:53;;;;;;;;;31.25;28.00;;;;;5.69;68.89;102036.53;5097470;27;45257;-61
2022/02/09 04:10:24;;;;;;;;;30.25;28.50;;;;;5.69;68.83;102030.44;5097729;27;45371;-61
2022/02/09 04:13:42;;;;;;;;;34.25;29.25;;;;;5.70;68.82;102035.63;5097605;27;45428;-61
2022/02/09 04:22:33;;;;;;;;;33.25;26.00;;;;;5.68;68.47;102032.22;5097587;27;45444;-60
2022/02/09 04:37:07;;;;;;;;;28.25;20.75;;;;;5.48;68.50;102028.72;5076640;28;45314;-61
2022/02/09 04:47:58;;;;;;;;;26.00;23.50;;;;;5.36;68.79;102026.63;5075393;28;45351;-61
2022/02/09 04:50:35;;;;;;;;;31.50;24.00;;;;;5.32;68.96;102020.72;5076205;28;45798;-61
2022/02/09 04:54:11;;;;;;;;;23.50;21.75;;;;;5.31;68.98;102020.75;5058379;28;45397;-60
2022/02/09 04:56:12;;;;;;;;;25.00;23.25;;;;;5.29;68.73;102030.44;5076156;28;45554;-61
2022/02/09 05:01:14;;;;;;;;;25.00;21.00;;;;;5.28;68.18;102026.97;5076354;28;45556;-61
2022/02/09 05:04:13;;;;;;;;;24.25;20.50;;;;;5.26;67.87;102023.56;5058148;28;45522;-61
2022/02/09 05:23:20;;;;;;;;;25.50;20.25;;;;;5.15;67.87;102037.06;5076198;28;45300;-58
2022/02/09 05:25:51;;;;;;;;;21.00;20.00;;;;;5.11;67.97;102038.09;5076109;28;45371;-58
2022/02/09 05:28:19;;;;;;;;;20.25;20.00;;;;;5.09;68.02;102049.47;5057945;28;45489;-59
2022/02/09 05:30:48;;;;;;;;;26.50;23.00;;;;;5.05;67.69;102043.56;5075515;27;46054;-61
2022/02/09 05:33:14;;;;;;;;;31.25;26.25;;;;;5.04;67.50;102034.03;5076186;28;45349;-60
2022/02/09 05:35:42;;;;;;;;;29.50;24.50;;;;;5.00;67.46;102035.94;5076006;28;45327;-59
2022/02/09 05:38:08;;;;;;;;;34.50;30.00;;;;;5.00;67.08;102033.31;5076113;28;45285;-58
2022/02/09 05:40:33;;;;;;;;;30.50;24.00;;;;;5.00;67.01;102032.47;5075894;28;46029;-59
2022/02/09 05:42:58;;;;;;;;;32.00;25.75;;;;;4.98;66.99;102031.69;5075874;28;45252;-61
2022/02/09 05:45:29;;;;;;;;;25.25;20.75;;;;;4.98;67.17;102029.94;5075968;28;45433;-59
2022/02/09 05:49:22;;;;;;;;;25.50;23.50;;;;;4.98;67.01;102029.94;5075952;28;45366;-60
2022/02/09 05:50:59;;;;;;;;;27.50;24.75;;;;;4.95;67.20;102031.81;5066086;28;45557;-60
2022/02/09 05:53:36;;;;;;;;;22.50;21.25;;;;;4.90;67.57;102040.66;5075640;28;45333;-58
2022/02/09 05:56:08;;;;;;;;;23.50;23.25;;;;;4.88;67.75;102037.25;5057465;28;45438;-58
2022/02/09 05:58:37;;;;;;;;;26.75;21.25;;;;;4.83;67.62;102030.56;5075900;28;45535;-59
2022/02/09 06:01:03;;;;;;;;;27.50;21.00;;;;;4.79;67.74;102029.81;5078568;28;45390;-58
2022/02/09 06:03:29;;;;;;;;;23.50;21.75;;;;;4.77;67.93;102042.03;5078300;28;45236;-58
2022/02/09 06:05:54;;;;;;;;;21.00;20.25;;;;;4.75;67.81;102036.06;5078840;28;45546;-59
2022/02/09 06:08:22;;;;;;;;;26.50;22.25;;;;;4.73;67.75;102036.13;5079187;28;45181;-59
2022/02/09 06:10:53;;;;;;;;;33.75;23.75;;;;;4.71;67.85;102035.34;5079000;28;46317;-59
2022/02/09 06:14:17;;;;;;;;;35.75;31.00;;;;;4.70;67.65;102035.41;5078902;28;45295;-59
2022/02/09 06:19:37;;;;;;;;;41.25;36.00;;;;;4.70;67.70;102040.63;5067914;28;45356;-59
2022/02/09 06:21:37;;;;;;;;;28.75;20.50;;;;;4.65;68.04;102047.75;5078701;28;45941;-59
2022/02/09 06:24:02;;;;;;;;;29.75;25.50;;;;;4.60;68.21;102059.19;5077477;28;70970;-58
2022/02/09 06:26:27;;;;;;;;;26.25;18.75;;;;;4.58;68.41;102052.34;5078203;28;47026;-59
2022/02/09 06:28:53;;;;;;;;;25.25;20.75;;;;;4.55;68.77;102058.53;5077661;28;65274;-59
2022/02/09 06:31:18;;;;;;;;;24.50;22.75;;;;;4.54;68.88;102056.81;5076996;27;74245;-59
2022/02/09 06:33:43;;;;;;;;;20.25;20.00;;;;;4.54;68.67;102056.81;5077559;28;69965;-59
2022/02/09 06:36:10;;;;;;;;;28.00;23.00;;;;;4.55;68.70;102055.06;5078848;28;45342;-59
2022/02/09 06:38:39;;;;;;;;;34.00;25.50;;;;;4.53;68.06;102059.47;5078712;28;45319;-59
2022/02/09 06:41:09;;;;;;;;;32.75;28.00;;;;;4.50;68.09;102052.66;5078178;28;46359;-59
2022/02/09 06:43:34;;;;;;;;;37.25;28.25;;;;;4.49;67.96;102043.13;5078149;28;45462;-58
2022/02/09 06:46:01;;;;;;;;;35.50;31.50;;;;;4.50;68.00;102039.63;5078292;28;45291;-58
2022/02/09 06:48:28;;;;;;;;;33.25;28.00;;;;;4.52;67.96;102040.41;5078198;28;45530;-58
2022/02/09 06:50:57;;;;;;;;;27.00;24.00;;;;;4.52;68.11;102035.22;5078102;28;46122;-61
2022/02/09 06:55:57;;;;;;;;;27.75;24.25;;;;;4.49;68.48;102032.72;5078166;28;45407;-58
2022/02/09 06:58:56;;;;;;;;;53.25;35.50;;;;;4.47;68.07;102038.91;5059693;28;45292;-59
2022/02/09 07:01:08;;;;;;;;;41.25;35.25;;;;;4.46;68.18;102032.84;5062481;28;47162;-58
2022/02/09 07:03:34;;;;;;;;;40.00;35.00;;;;;4.47;67.81;102044.94;5077955;28;45323;-59
2022/02/09 07:05:59;;;;;;;;;58.25;42.75;;;;;4.46;67.79;102038.06;5078078;28;45388;-59
2022/02/09 07:08:25;;;;;;;;;53.75;36.75;;;;;4.45;67.50;102042.44;5077157;28;69144;-60
2022/02/09 07:10:50;;;;;;;;;41.50;37.00;;;;;4.47;67.68;102049.31;5076807;28;46307;-58
2022/02/09 07:13:18;;;;;;;;;45.25;36.00;;;;;4.46;67.52;102048.47;5077726;28;45377;-59
2022/02/09 07:15:44;;;;;;;;;54.50;40.00;;;;;4.45;67.54;102049.38;5077881;28;45389;-58
2022/02/09 07:18:12;;;;;;;;;48.00;39.75;;;;;4.44;67.86;102055.47;5077912;28;45234;-61
2022/02/09 07:23:22;;;;;;;;;88.50;63.75;;;;;4.43;68.08;102057.25;5077681;28;45260;-59
2022/02/09 07:25:59;;;;;;;;;76.00;54.75;;;;;4.44;68.61;102065.88;5059493;28;45248;-61
2022/02/09 07:28:25;;;;;;;;;67.50;48.50;;;;;4.44;68.60;102065.88;5059555;28;45455;-61
2022/02/09 07:30:50;;;;;;;;;51.00;37.50;;;;;4.43;68.55;102061.59;5076320;27;73783;-60
2022/02/09 07:33:16;;;;;;;;;54.00;42.00;;;;;4.42;68.79;102065.97;5076934;28;63075;-61
2022/02/09 07:35:41;;;;;;;;;59.25;42.50;;;;;4.42;68.34;102065.09;5076766;28;68310;-59
2022/02/09 07:38:06;;;;;;;;;33.25;26.75;;;;;4.41;68.40;102074.69;5077406;28;46252;-59
2022/02/09 07:40:32;;;;;;;;;33.00;24.50;;;;;4.43;68.70;102077.19;5076689;28;65768;-59
2022/02/09 07:43:04;;;;;;;;;33.50;28.00;;;;;4.43;69.16;102075.47;5077296;28;45303;-59
2022/02/09 07:45:59;;;;;;;;;37.50;29.75;;;;;4.43;69.33;102069.41;5077182;28;45490;-59
2022/02/09 07:51:36;;;;;;;;;35.75;29.75;;;;;4.44;69.57;102065.88;5076145;28;45438;-61
2022/02/09 07:54:02;;;;;;;;;46.75;32.50;;;;;4.47;69.45;102063.16;5076367;28;45883;-61
2022/02/09 07:56:32;;;;;;;;;57.25;40.25;;;;;4.49;69.60;102063.13;5076773;28;45432;-58
2022/02/09 07:58:58;;;;;;;;;59.00;43.00;;;;;4.50;69.10;102047.44;5058432;28;45522;-59
2022/02/09 08:01:23;;;;;;;;;60.00;46.25;;;;;4.52;69.27;102045.63;5076442;28;53182;-59
2022/02/09 08:03:49;;;;;;;;;62.50;47.25;;;;;4.54;69.24;102041.22;5077054;28;45370;-59
2022/02/09 08:06:17;;;;;;;;;64.75;50.75;;;;;4.58;69.39;102048.00;5077029;28;45220;-59
2022/02/09 08:08:43;;;;;;;;;67.75;51.50;;;;;4.63;69.33;102047.81;5076716;28;45202;-61
2022/02/09 08:11:18;;;;;;;;;62.75;50.00;;;;;4.68;69.31;102045.03;5076409;28;46376;-59
2022/02/09 08:27:39;;;;;;;;;62.25;47.50;;;;;4.86;70.22;102036.47;5076917;28;45235;-61
2022/02/09 08:35:14;;;;;;;;;55.50;43.25;;;;;5.01;70.63;102024.59;5059417;28;45355;-61
2022/02/09 08:37:40;;;;;;;;;64.75;50.75;;;;;5.07;70.95;102018.28;5076503;28;51641;-61
2022/02/09 08:40:06;;;;;;;;;64.75;53.00;;;;;5.13;70.99;102027.59;5058172;28;45447;-61
2022/02/09 08:42:33;;;;;;;;;76.25;55.75;;;;;5.16;71.08;102024.84;5076534;28;46286;-59
2022/02/09 08:45:11;;;;;;;;;71.75;56.00;;;;;5.26;71.20;102027.94;5076899;28;45650;-58
2022/02/09 08:47:36;;;;;;;;;73.75;56.00;;;;;5.32;71.08;102030.28;5058320;28;45483;-61
2022/02/09 08:50:03;;;;;;;;;74.50;56.50;;;;;5.40;70.93;102020.38;5058831;28;45595;-59
2022/02/09 08:52:28;;;;;;;;;69.50;54.50;;;;;5.51;70.91;102025.13;5076638;28;46226;-61
2022/02/09 08:54:54;;;;;;;;;80.00;58.75;;;;;5.60;71.02;102021.28;5075105;28;70371;-62
2022/02/09 08:57:21;;;;;;;;;77.50;58.50;;;;;5.70;70.66;102022.56;5058642;28;45247;-60
2022/02/09 08:59:46;;;;;;;;;58.75;45.00;;;;;5.82;70.82;102025.56;5076673;28;45330;-59
2022/02/09 09:02:14;;;;;;;;;74.75;57.75;;;;;5.97;70.83;102022.25;5076176;28;46589;-58
2022/02/09 09:04:47;;;;;;;;;66.50;47.50;;;;;6.18;70.82;102017.00;5076238;28;45788;-59
2022/02/09 09:07:17;;;;;;;;;60.00;46.00;;;;;6.42;70.22;102012.41;5075816;28;45323;-60
2022/02/09 09:09:53;;;;;;;;;56.00;44.25;;;;;6.70;69.85;102016.28;5076592;28;45250;-59
2022/02/09 10:05:30;;;;;;;;;31.25;27.25;;;;;11.65;56.49;101963.78;5069053;27;45530;-61
2022/02/09 10:34:00;;;;;;;;;25.00;22.00;;;;;13.39;51.22;101958.97;5068927;28;45453;-61
2022/02/09 10:36:26;;;;;;;;;21.25;20.00;;;;;13.52;50.93;101958.03;5042617;28;45483;-61
2022/02/09 10:39:09;;;;;;;;;24.25;21.75;;;;;13.69;50.06;101957.56;5058220;28;45253;-60
2022/02/09 10:41:42;;;;;;;;;24.75;22.25;;;;;13.79;49.56;101953.19;5057947;28;47124;-61
2022/02/09 10:44:09;;;;;;;;;24.00;20.50;;;;;13.86;49.63;101950.06;5057501;28;45442;-60
2022/02/09 10:46:52;;;;;;;;;17.75;17.00;;;;;14.00;49.52;101952.44;5057558;28;45462;-61
2022/02/09 10:49:19;;;;;;;;;22.50;19.75;;;;;14.19;49.28;101948.31;5040534;28;45377;-61
2022/02/09 10:52:04;;;;;;;;;22.25;17.00;;;;;14.34;48.25;101949.69;5057301;28;45413;-61
2022/02/09 10:54:31;;;;;;;;;21.00;19.50;;;;;14.50;48.12;101946.66;5057891;28;45345;-60
2022/02/09 10:56:57;;;;;;;;;23.25;19.25;;;;;14.61;47.84;101936.94;5058010;28;45413;-59
2022/02/09 10:59:25;;;;;;;;;21.00;20.00;;;;;14.75;47.52;101939.31;5057623;28;45270;-61
2022/02/09 11:01:50;;;;;;;;;22.50;18.00;;;;;14.91;47.42;101935.38;5057824;28;45580;-60
2022/02/09 11:04:16;;;;;;;;;24.25;20.75;;;;;15.01;47.50;101935.44;5057851;28;45384;-61
2022/02/09 11:06:45;;;;;;;;;18.00;16.50;;;;;15.09;46.95;101931.19;5057907;28;45426;-58
2022/02/09 11:09:13;;;;;;;;;17.00;16.75;;;;;15.21;46.54;101931.06;5057706;28;45294;-61
2022/02/09 11:11:41;;;;;;;;;22.25;21.50;;;;;15.35;46.49;101914.84;5056491;28;45497;-61
2022/02/09 11:14:15;;;;;;;;;24.75;19.25;;;;;15.54;46.34;101922.00;5039381;28;45928;-61
2022/02/09 11:16:48;;;;;;;;;21.00;18.00;;;;;15.75;45.37;101923.75;5056693;28;45550;-60
2022/02/09 11:19:16;;;;;;;;;22.00;17.25;;;;;15.90;44.63;101920.75;5057391;28;45447;-59
2022/02/09 11:21:44;;;;;;;;;22.75;20.25;;;;;16.09;44.16;101918.09;5056133;28;47135;-61
2022/02/09 11:24:20;;;;;;;;;28.00;20.00;;;;;16.26;44.41;101913.91;5057574;28;45810;-59
2022/02/09 11:27:09;;;;;;;;;26.25;19.25;;;;;16.43;43.97;101898.28;5040189;28;45297;-59
2022/02/09 11:29:58;;;;;;;;;23.50;20.00;;;;;16.58;43.29;101896.84;5059016;28;45441;-61
2022/02/09 11:40:43;;;;;;;;;22.50;17.75;;;;;16.66;42.13;101885.53;5077884;28;45220;-61
2022/02/09 11:43:24;;;;;;;;;16.75;13.50;;;;;16.75;41.94;101887.31;5077533;28;46936;-61
2022/02/09 11:51:38;;;;;;;;;20.75;19.00;;;;;17.16;41.96;101875.59;5077595;28;45149;-61
2022/02/09 12:11:36;;;;;;;;;29.25;24.75;;;;;17.29;40.50;101861.97;5077140;28;45313;-61
2022/02/09 12:17:14;;;;;;;;;27.25;25.25;;;;;16.97;40.90;101852.63;4994263;28;46961;-61
2022/02/09 12:19:48;;;;;;;;;26.50;22.00;;;;;16.89;40.70;101850.69;4994382;28;45936;-61
2022/02/09 12:22:24;;;;;;;;;27.00;26.75;;;;;16.77;41.38;101853.50;5040783;28;45375;-60
2022/02/09 12:24:58;;;;;;;;;22.75;19.00;;;;;16.69;41.13;101849.91;5076467;28;45228;-61
2022/02/09 12:27:23;;;;;;;;;24.25;23.00;;;;;16.65;40.82;101852.00;5074859;28;75751;-60
2022/02/09 12:29:57;;;;;;;;;26.00;21.75;;;;;16.61;41.00;101858.56;5075358;28;70233;-61
2022/02/09 12:32:24;;;;;;;;;26.50;23.25;;;;;16.56;40.69;101842.25;5076916;28;45459;-60
2022/02/09 12:35:00;;;;;;;;;28.75;25.00;;;;;16.46;41.22;101842.28;5076687;28;45486;-60
2022/02/09 12:37:31;;;;;;;;;30.50;24.00;;;;;16.38;41.09;101832.38;5076466;28;47456;-61
2022/02/09 12:39:58;;;;;;;;;28.00;25.00;;;;;16.29;41.79;101828.75;5076266;28;45421;-60
2022/02/09 12:42:31;;;;;;;;;28.75;23.00;;;;;16.27;41.48;101825.41;5058248;28;45564;-60
2022/02/09 12:45:01;;;;;;;;;27.75;25.00;;;;;16.24;41.45;101819.56;5076568;28;45351;-60
2022/02/09 12:47:34;;;;;;;;;27.25;23.75;;;;;16.22;41.76;101816.22;5076408;28;45232;-60
2022/02/09 12:50:00;;;;;;;;;26.25;25.25;;;;;16.23;41.55;101816.06;5076572;28;45321;-60
2022/02/09 12:52:28;;;;;;;;;29.75;26.00;;;;;16.28;41.62;101818.31;5058254;28;45434;-60
2022/02/09 12:55:05;;;;;;;;;26.25;24.75;;;;;16.30;41.48;101816.34;5076231;28;45536;-60
2022/02/09 12:57:35;;;;;;;;;28.25;23.25;;;;;16.35;41.19;101819.41;5076196;28;46371;-60
2022/02/09 13:00:00;;;;;;;;;24.75;22.25;;;;;16.38;41.22;101813.81;5076220;28;45234;-60
2022/02/09 13:02:43;;;;;;;;;25.00;21.25;;;;;16.38;41.47;101810.31;5076092;28;49286;-60
2022/02/09 13:05:09;;;;;;;;;31.00;25.25;;;;;16.32;41.22;101806.44;5076557;28;45313;-60
2022/02/09 13:07:34;;;;;;;;;25.75;20.75;;;;;16.27;41.33;101811.31;5075364;28;45976;-60
2022/02/09 13:09:59;;;;;;;;;22.25;21.00;;;;;16.26;41.36;101804.34;5075912;28;45224;-60
2022/02/09 13:12:29;;;;;;;;;22.75;21.25;;;;;16.25;41.51;101807.97;5057731;28;49986;-60
2022/02/09 13:15:06;;;;;;;;;25.50;20.50;;;;;16.25;40.98;101800.03;5058226;28;45427;-60
2022/02/09 13:55:00;;;;;;;;;15.75;14.75;;;;;16.59;38.40;101751.75;5075492;28;45313;-60
2022/02/09 14:56:03;;;;;;;;;19.00;16.50;;;;;15.21;41.64;101709.53;5098262;27;49526;-60
2022/02/09 14:58:31;;;;;;;;;17.50;13.75;;;;;15.27;41.19;101700.19;5098705;27;45385;-61
2022/02/09 15:08:49;;;;;;;;;21.50;14.75;;;;;15.01;41.94;101707.81;5081603;27;45406;-61
2022/02/09 15:11:29;;;;;;;;;20.00;16.25;;;;;14.93;41.92;101711.16;5098304;27;45439;-60
2022/02/09 15:14:20;;;;;;;;;19.00;17.75;;;;;14.86;42.33;101704.72;5080107;27;45462;-60
2022/02/09 15:16:55;;;;;;;;;20.25;16.25;;;;;14.84;41.84;101703.06;5098470;27;46248;-60
2022/02/09 15:19:35;;;;;;;;;15.50;13.25;;;;;14.82;42.42;101704.16;5098217;27;45813;-60
2022/02/09 15:22:04;;;;;;;;;15.75;12.50;;;;;14.73;42.94;101694.41;5098544;27;45408;-60
2022/02/09 15:24:47;;;;;;;;;19.00;15.25;;;;;14.68;42.87;101692.94;5098388;27;45186;-60
2022/02/09 15:27:19;;;;;;;;;16.00;11.75;;;;;14.72;42.72;101685.59;5097983;27;45302;-61
2022/02/09 15:29:45;;;;;;;;;12.00;10.50;;;;;14.62;43.56;101688.19;5079327;27;45464;-61
2022/02/09 15:32:35;;;;;;;;;10.50;10.00;;;;;14.49;43.31;101692.88;5096522;27;45284;-61
2022/02/09 15:35:37;;;;;;;;;16.00;14.00;;;;;14.34;42.70;101682.66;5098005;27;45553;-61
2022/02/09 15:38:33;;;;;;;;;13.50;12.50;;;;;14.27;42.60;101686.81;5094876;27;45961;-60
2022/02/09 15:43:46;;;;;;;;;55.50;44.50;;;;;14.15;44.45;101674.66;5098283;27;45285;-60
2022/02/09 16:23:46;;;;;;;;;20.50;16.50;;;;;12.92;48.61;101639.84;5097477;27;46011;-59
2022/02/09 16:34:45;;;;;;;;;32.00;30.00;;;;;12.76;49.37;101629.66;5097130;27;45752;-59
2022/02/09 16:45:30;;;;;;;;;22.75;19.25;;;;;12.36;50.44;101630.22;5096836;27;45291;-59
2022/02/09 16:48:00;;;;;;;;;23.25;19.50;;;;;12.28;51.19;101630.81;5097063;27;45442;-59
2022/02/09 16:50:34;;;;;;;;;24.50;19.75;;;;;12.17;50.90;101629.84;5096950;27;45373;-60
2022/02/09 16:53:07;;;;;;;;;18.25;16.00;;;;;12.08;51.01;101630.56;5095906;27;46138;-59
2022/02/09 17:19:28;;;;;;;;;22.75;17.25;;;;;11.19;53.63;101623.16;5076176;28;45245;-61
2022/02/09 17:21:53;;;;;;;;;21.25;16.25;;;;;11.12;53.42;101625.41;5075991;28;45185;-59
2022/02/09 17:24:19;;;;;;;;;21.75;20.75;;;;;11.04;53.60;101622.50;5057564;28;45354;-60
2022/02/09 17:26:44;;;;;;;;;29.00;22.25;;;;;10.98;53.89;101620.31;5075001;28;66302;-60
2022/02/09 17:29:16;;;;;;;;;23.00;18.00;;;;;10.87;54.31;101620.25;5075721;28;45428;-59
2022/02/09 17:37:12;;;;;;;;;28.75;23.75;;;;;10.60;54.89;101624.75;5075866;28;45514;-60
2022/02/09 17:53:29;;;;;;;;;30.50;24.00;;;;;10.21;55.67;101622.16;5075872;28;45250;-60
2022/02/09 17:58:27;;;;;;;;;32.50;25.25;;;;;10.09;56.17;101617.75;5079074;28;45375;-60
2022/02/09 18:00:53;;;;;;;;;32.50;26.25;;;;;10.05;56.68;101611.06;5061173;28;45308;-60
2022/02/09 18:03:19;;;;;;;;;32.00;28.25;;;;;10.02;56.89;101613.91;5079249;28;45273;-60
2022/02/09 18:05:49;;;;;;;;;36.00;32.25;;;;;9.99;56.79;101616.75;5078889;28;46368;-59
2022/02/09 18:08:26;;;;;;;;;48.50;38.50;;;;;9.97;56.75;101619.44;5061316;28;45850;-60
2022/02/09 18:11:41;;;;;;;;;43.75;37.00;;;;;9.91;57.21;101625.13;5045684;28;45355;-60
2022/02/09 18:30:31;;;;;;;;;50.00;41.50;;;;;9.42;58.19;101629.28;5078510;28;45267;-60
2022/02/09 18:38:26;;;;;;;;;32.50;32.50;;;;;9.30;58.34;101623.88;5063160;28;45818;-60
2022/02/09 18:43:29;;;;;;;;;54.25;41.25;;;;;9.20;58.78;101620.19;5078818;28;45339;-60
2022/02/09 18:59:50;;;;;;;;;39.50;31.50;;;;;8.93;59.28;101613.19;5078256;28;45830;-60
2022/02/09 19:05:44;;;;;;;;;35.25;31.00;;;;;8.85;59.57;101597.94;5078104;28;45433;-59
2022/02/09 19:32:12;;;;;;;;;40.50;33.75;;;;;8.50;60.49;101574.81;5077684;28;45784;-60
2022/02/09 19:46:07;;;;;;;;;49.75;37.25;;;;;8.38;60.71;101576.41;5046062;28;45782;-61
2022/02/09 19:48:41;;;;;;;;;40.25;36.00;;;;;8.37;60.81;101569.50;5077861;28;45384;-61
2022/02/09 19:57:02;;;;;;;;;47.50;35.50;;;;;8.26;60.80;101570.16;5034324;28;45873;-59
2022/02/09 19:59:30;;;;;;;;;43.00;35.25;;;;;8.22;60.77;101576.50;5077664;28;45464;-61
2022/02/09 20:01:56;;;;;;;;;40.50;35.50;;;;;8.15;60.95;101570.81;5077489;28;45302;-61
2022/02/09 20:04:21;;;;;;;;;42.50;37.00;;;;;8.12;60.96;101565.78;5077212;28;47082;-61
2022/02/09 20:06:59;;;;;;;;;49.25;38.50;;;;;8.09;61.13;101559.91;5077357;28;45304;-61
2022/02/09 20:09:26;;;;;;;;;54.50;42.25;;;;;8.06;60.99;101558.28;5044395;28;45387;-61
2022/02/09 20:11:52;;;;;;;;;48.50;38.75;;;;;8.05;61.06;101559.22;5077320;28;45540;-61
2022/02/09 20:14:18;;;;;;;;;46.75;37.25;;;;;8.00;61.22;101556.03;5077155;28;45313;-61
2022/02/09 20:16:44;;;;;;;;;52.50;41.50;;;;;7.96;61.25;101557.16;5076819;28;45308;-60
2022/02/09 20:19:09;;;;;;;;;48.00;40.25;;;;;7.93;61.26;101550.34;5058885;28;45409;-60
2022/02/09 20:21:35;;;;;;;;;52.50;43.50;;;;;7.90;61.43;101550.53;5059191;28;45328;-60
2022/02/09 20:24:02;;;;;;;;;59.00;47.75;;;;;7.87;61.37;101546.34;5077022;28;45300;-60
2022/02/09 20:26:27;;;;;;;;;57.25;44.75;;;;;7.84;61.73;101545.69;5076854;28;45370;-61
2022/02/09 20:29:10;;;;;;;;;55.50;40.75;;;;;7.78;61.81;101552.13;5077218;28;45462;-61
2022/02/09 20:31:45;;;;;;;;;51.25;40.50;;;;;7.73;61.83;101541.09;5077025;28;45330;-61
2022/02/09 20:34:26;;;;;;;;;53.25;41.75;;;;;7.69;61.84;101542.22;5076883;28;46123;-61
2022/02/09 20:36:51;;;;;;;;;56.25;42.00;;;;;7.64;62.15;101539.03;5077022;28;45323;-61
2022/02/09 20:39:22;;;;;;;;;52.50;40.25;;;;;7.60;62.36;101545.38;5076911;28;45711;-60
2022/02/09 20:41:48;;;;;;;;;49.50;37.50;;;;;7.57;62.40;101543.81;5076995;28;45323;-60
2022/02/09 20:46:44;;;;;;;;;48.50;38.50;;;;;7.54;62.59;101534.34;5076797;28;45400;-61
2022/02/09 20:49:10;;;;;;;;;58.75;43.50;;;;;7.53;62.52;101537.91;5058198;28;45443;-60
2022/02/09 20:51:38;;;;;;;;;63.00;48.00;;;;;7.50;62.56;101538.09;5076094;28;67985;-60
2022/02/09 20:54:03;;;;;;;;;62.25;50.00;;;;;7.48;62.69;101534.72;5076640;28;45900;-61
2022/02/09 20:56:29;;;;;;;;;65.50;51.75;;;;;7.47;63.00;101537.44;5075831;28;65958;-61
2022/02/09 20:59:02;;;;;;;;;69.25;52.25;;;;;7.47;62.92;101534.81;5092891;27;45256;-61
2022/02/09 21:01:36;;;;;;;;;68.75;52.00;;;;;7.46;62.79;101525.28;5097081;27;45374;-60
2022/02/09 21:04:06;;;;;;;;;65.25;50.50;;;;;7.44;62.94;101538.44;5096981;27;46904;-60
2022/02/09 21:12:07;;;;;;;;;57.50;43.50;;;;;7.40;63.10;101531.75;5078893;27;45367;-60
2022/02/09 21:17:52;;;;;;;;;72.50;56.00;;;;;7.35;63.09;101539.00;5096858;27;45311;-60
2022/02/09 21:20:41;;;;;;;;;65.00;49.50;;;;;7.34;63.08;101538.16;5095723;27;45219;-60
2022/02/09 21:23:23;;;;;;;;;59.25;47.75;;;;;7.32;63.39;101536.56;5096740;27;45399;-61
2022/02/09 21:30:04;;;;;;;;;48.50;40.00;;;;;7.26;63.77;101536.00;5096338;27;45384;-61
2022/02/09 22:22:39;;;;;;;;;62.75;48.25;;;;;6.95;64.17;101516.03;5099184;27;45711;-61
2022/02/09 22:27:38;;;;;;;;;64.00;48.25;;;;;6.90;64.39;101518.88;5099428;27;45293;-60
2022/02/09 22:30:49;;;;;;;;;65.00;50.25;;;;;6.86;64.22;101509.56;5098544;27;45720;-60
2022/02/09 22:49:02;;;;;;;;;69.75;53.75;;;;;7.09;67.72;101507.38;5099123;27;45606;-60
2022/02/09 22:56:48;;;;;;;;;45.50;31.00;;;;;7.33;68.07;101506.88;5099044;27;45342;-61
2022/02/09 22:59:22;;;;;;;;;64.25;50.25;;;;;7.38;68.02;101507.47;5099061;27;45373;-60
2022/02/09 23:02:02;;;;;;;;;69.00;51.50;;;;;7.45;67.95;101493.06;5098868;27;47305;-60
2022/02/09 23:07:09;;;;;;;;;65.25;49.00;;;;;7.56;68.00;101493.25;5098999;27;45390;-60
2022/02/09 23:12:13;;;;;;;;;67.75;49.75;;;;;7.67;68.01;101494.38;5098675;27;45358;-60
2022/02/09 23:27:41;;;;;;;;;61.00;48.50;;;;;7.98;67.83;101463.69;5098672;27;45277;-61
